Time;durP1;ratioP1;P1;durP2;ratioP2;P2;SDS_P1;SDS_P2;PMS_P1;PMS_P2;Temp;Humidity;BMP_temperature;BMP_pressure;BME280_temperature;BME280_humidity;BME280_pressure;Samples;Min_cycle;Max_cycle;Signal;HPM_P1;HPM_P2
2021/12/01 00:00:19;;;;;;;15.68;7.40;;;;;;;;;;5040877;28;20049;-55
2021/12/01 00:02:52;;;;;;;18.85;10.07;;;;;;;;;;5036516;28;20049;-59
2021/12/01 00:05:19;;;;;;;13.05;6.90;;;;;;;;;;5036946;28;20052;-58
2021/12/01 00:07:45;;;;;;;18.38;8.18;;;;;;;;;;5031728;28;20046;-55
2021/12/01 00:10:13;;;;;;;19.27;7.80;;;;;;;;;;5019056;28;20045;-58
2021/12/01 00:12:40;;;;;;;16.60;7.73;;;;;;;;;;5016774;28;20038;-58
2021/12/01 00:15:06;;;;;;;16.42;7.13;;;;;;;;;;5038680;28;20037;-58
2021/12/01 00:17:33;;;;;;;11.27;6.45;;;;;;;;;;5039349;28;20045;-57
2021/12/01 00:20:00;;;;;;;13.13;6.65;;;;;;;;;;5016617;28;20045;-58
2021/12/01 00:22:27;;;;;;;11.52;5.80;;;;;;;;;;5018346;28;20057;-58
2021/12/01 00:24:56;;;;;;;11.50;5.68;;;;;;;;;;5014957;28;20135;-58
2021/12/01 00:27:26;;;;;;;10.82;4.93;;;;;;;;;;5021346;28;20045;-57
2021/12/01 00:29:57;;;;;;;10.73;5.18;;;;;;;;;;5019615;28;20083;-58
2021/12/01 00:32:24;;;;;;;10.45;5.13;;;;;;;;;;5024503;28;20049;-57
2021/12/01 00:34:52;;;;;;;7.03;3.55;;;;;;;;;;5023258;28;20337;-58
2021/12/01 00:37:19;;;;;;;7.80;4.10;;;;;;;;;;5022598;28;20041;-58
2021/12/01 00:39:45;;;;;;;6.03;3.25;;;;;;;;;;5019625;28;20049;-59
2021/12/01 00:42:12;;;;;;;8.90;3.92;;;;;;;;;;5020379;28;20049;-56
2021/12/01 00:44:46;;;;;;;6.47;3.53;;;;;;;;;;5019007;28;20038;-57
2021/12/01 00:47:13;;;;;;;8.27;3.13;;;;;;;;;;5037020;28;20057;-57
2021/12/01 00:49:43;;;;;;;10.00;3.17;;;;;;;;;;5030986;28;20063;-58
2021/12/01 00:52:09;;;;;;;7.20;3.53;;;;;;;;;;5019552;28;20046;-56
2021/12/01 00:54:36;;;;;;;5.90;2.78;;;;;;;;;;5016891;28;20060;-57
2021/12/01 00:57:02;;;;;;;6.90;3.30;;;;;;;;;;5020211;28;20104;-57
2021/12/01 00:59:29;;;;;;;6.40;3.65;;;;;;;;;;5020096;28;20193;-58
2021/12/01 01:01:57;;;;;;;5.88;3.08;;;;;;;;;;5042246;28;20049;-58
2021/12/01 01:04:24;;;;;;;5.70;2.60;;;;;;;;;;5040832;28;20059;-59
2021/12/01 01:06:50;;;;;;;9.50;3.13;;;;;;;;;;5017240;28;20037;-58
2021/12/01 01:09:17;;;;;;;5.38;2.88;;;;;;;;;;5040872;28;20057;-57
2021/12/01 01:17:18;;;;;;;5.25;2.75;;;;;;;;;;5018402;28;20057;-58
2021/12/01 01:19:44;;;;;;;5.78;3.20;;;;;;;;;;5021804;28;20048;-58
2021/12/01 01:22:11;;;;;;;6.35;3.10;;;;;;;;;;5052101;28;20229;-57
2021/12/01 01:24:38;;;;;;;6.10;2.90;;;;;;;;;;5060699;28;20041;-56
2021/12/01 01:27:05;;;;;;;9.35;3.03;;;;;;;;;;5038968;28;20126;-57
2021/12/01 01:29:34;;;;;;;6.00;3.28;;;;;;;;;;5039879;28;20127;-58
2021/12/01 01:32:01;;;;;;;10.32;2.88;;;;;;;;;;5037851;28;20056;-58
2021/12/01 01:34:29;;;;;;;5.55;2.92;;;;;;;;;;5040282;28;20057;-57
2021/12/01 01:36:55;;;;;;;8.05;2.83;;;;;;;;;;5026495;28;20093;-57
2021/12/01 01:39:22;;;;;;;7.72;3.13;;;;;;;;;;5020436;28;20086;-58
2021/12/01 01:41:48;;;;;;;5.78;2.78;;;;;;;;;;5013997;28;20056;-57
2021/12/01 01:44:15;;;;;;;4.25;2.38;;;;;;;;;;5021179;28;20122;-57
2021/12/01 01:46:41;;;;;;;6.75;3.20;;;;;;;;;;5025342;28;20041;-57
2021/12/01 01:49:11;;;;;;;4.43;2.53;;;;;;;;;;5039689;28;20037;-58
2021/12/01 01:51:40;;;;;;;4.35;2.40;;;;;;;;;;5039624;28;20060;-58
2021/12/01 01:54:06;;;;;;;;;;;;;;;;;;5061324;28;20292;-57
2021/12/01 01:56:33;;;;;;;3.72;1.88;;;;;;;;;;5055393;28;19928;-57
2021/12/01 01:58:59;;;;;;;5.32;2.33;;;;;;;;;;5021329;28;20067;-56
2021/12/01 02:01:44;;;;;;;4.65;2.20;;;;;;;;;;5020080;28;20314;-57
2021/12/01 02:04:11;;;;;;;4.45;2.10;;;;;;;;;;5017905;28;20048;-57
2021/12/01 02:06:38;;;;;;;3.50;1.73;;;;;;;;;;5023260;28;20045;-58
2021/12/01 02:09:06;;;;;;;3.22;1.70;;;;;;;;;;5015433;28;20128;-56
2021/12/01 02:11:33;;;;;;;4.15;1.65;;;;;;;;;;5020282;28;20041;-58
2021/12/01 02:13:59;;;;;;;4.68;1.73;;;;;;;;;;5033754;28;20084;-58
2021/12/01 02:16:28;;;;;;;2.85;1.58;;;;;;;;;;5039661;28;20041;-57
2021/12/01 02:18:54;;;;;;;3.72;1.50;;;;;;;;;;5022947;28;20049;-58
2021/12/01 02:21:26;;;;;;;1.92;1.30;;;;;;;;;;5020974;28;20041;-55
2021/12/01 02:23:56;;;;;;;3.50;1.70;;;;;;;;;;5027058;28;20051;-56
2021/12/01 02:26:24;;;;;;;3.00;1.45;;;;;;;;;;5038692;28;20033;-57
2021/12/01 02:28:51;;;;;;;2.72;1.60;;;;;;;;;;5026260;28;20030;-56
2021/12/01 02:31:18;;;;;;;3.20;1.73;;;;;;;;;;5020148;28;20041;-58
2021/12/01 02:33:45;;;;;;;2.75;1.58;;;;;;;;;;5017582;28;20123;-58
2021/12/01 02:36:11;;;;;;;3.00;1.65;;;;;;;;;;5020927;28;20060;-56
2021/12/01 02:38:41;;;;;;;2.92;1.73;;;;;;;;;;5016007;28;20378;-56
2021/12/01 02:41:08;;;;;;;4.22;1.45;;;;;;;;;;5019791;28;20052;-57
2021/12/01 02:43:34;;;;;;;2.15;1.30;;;;;;;;;;5018684;28;20120;-58
2021/12/01 02:46:01;;;;;;;3.35;1.65;;;;;;;;;;5040981;28;20041;-57
2021/12/01 02:48:29;;;;;;;4.05;1.50;;;;;;;;;;5039385;28;20037;-57
2021/12/01 02:50:55;;;;;;;6.20;1.50;;;;;;;;;;5036234;28;20029;-55
2021/12/01 02:53:22;;;;;;;2.25;1.40;;;;;;;;;;5039761;28;20037;-58
2021/12/01 02:55:53;;;;;;;3.53;1.77;;;;;;;;;;5018929;28;20037;-57
2021/12/01 02:58:20;;;;;;;3.40;1.50;;;;;;;;;;5019810;28;20082;-56
2021/12/01 03:00:47;;;;;;;1.73;1.30;;;;;;;;;;5031545;28;20084;-58
2021/12/01 03:03:13;;;;;;;2.00;1.27;;;;;;;;;;5039139;28;20055;-58
2021/12/01 03:05:40;;;;;;;1.80;1.02;;;;;;;;;;5038456;28;20037;-57
2021/12/01 03:08:08;;;;;;;1.83;1.30;;;;;;;;;;5039119;28;20044;-58
2021/12/01 03:10:34;;;;;;;2.58;1.38;;;;;;;;;;5034169;28;20053;-57
2021/12/01 03:13:02;;;;;;;3.13;1.40;;;;;;;;;;5039641;28;20044;-58
2021/12/01 03:15:29;;;;;;;4.63;1.20;;;;;;;;;;5028324;28;20127;-58
2021/12/01 03:17:55;;;;;;;1.95;1.15;;;;;;;;;;5019604;28;20045;-58
2021/12/01 03:20:22;;;;;;;4.13;1.17;;;;;;;;;;5020177;28;20044;-58
2021/12/01 03:22:50;;;;;;;1.58;1.10;;;;;;;;;;5039069;28;20048;-58
2021/12/01 03:25:16;;;;;;;1.67;0.65;;;;;;;;;;5036258;28;20048;-59
2021/12/01 03:27:44;;;;;;;1.63;1.00;;;;;;;;;;5039945;28;20120;-58
2021/12/01 03:30:13;;;;;;;3.08;1.00;;;;;;;;;;5035574;28;20053;-57
2021/12/01 03:32:40;;;;;;;1.95;1.10;;;;;;;;;;5038646;28;20045;-58
2021/12/01 03:35:08;;;;;;;1.33;0.90;;;;;;;;;;5039524;28;20041;-57
2021/12/01 03:37:35;;;;;;;1.70;1.13;;;;;;;;;;5036289;28;20049;-56
2021/12/01 03:40:01;;;;;;;1.30;0.98;;;;;;;;;;5039102;28;20190;-57
2021/12/01 03:42:28;;;;;;;2.17;1.40;;;;;;;;;;5033822;28;20051;-57
2021/12/01 03:44:55;;;;;;;2.80;1.30;;;;;;;;;;5038021;28;20066;-57
2021/12/01 03:47:23;;;;;;;2.00;1.40;;;;;;;;;;5038141;28;20057;-58
2021/12/01 03:49:49;;;;;;;1.60;1.08;;;;;;;;;;5040152;28;20073;-58
2021/12/01 03:52:17;;;;;;;1.58;1.08;;;;;;;;;;5034683;28;20036;-57
2021/12/01 03:54:43;;;;;;;2.28;1.35;;;;;;;;;;5039620;28;20029;-57
2021/12/01 03:57:10;;;;;;;1.95;1.25;;;;;;;;;;5026077;28;20052;-57
2021/12/01 03:59:36;;;;;;;3.85;1.20;;;;;;;;;;5020417;28;20045;-56
2021/12/01 04:02:03;;;;;;;1.90;1.33;;;;;;;;;;5019865;28;20057;-58
2021/12/01 04:04:31;;;;;;;4.47;1.30;;;;;;;;;;5039192;28;20041;-57
2021/12/01 04:06:57;;;;;;;1.90;1.15;;;;;;;;;;5037749;28;20073;-58
2021/12/01 04:09:24;;;;;;;2.45;1.27;;;;;;;;;;5040329;28;20049;-56
2021/12/01 04:11:51;;;;;;;1.73;1.05;;;;;;;;;;5038880;28;20049;-57
2021/12/01 04:14:17;;;;;;;1.92;1.17;;;;;;;;;;5041856;28;20454;-56
2021/12/01 04:16:44;;;;;;;5.22;1.30;;;;;;;;;;5043045;28;20107;-55
2021/12/01 04:19:11;;;;;;;2.47;1.40;;;;;;;;;;5038544;28;20046;-56
2021/12/01 04:21:39;;;;;;;3.00;1.50;;;;;;;;;;5040802;28;20037;-55
2021/12/01 04:24:06;;;;;;;2.28;1.50;;;;;;;;;;5037303;28;20041;-57
2021/12/01 04:26:33;;;;;;;1.73;1.20;;;;;;;;;;5041452;28;20052;-57
2021/12/01 04:29:01;;;;;;;1.67;1.15;;;;;;;;;;5037276;28;20049;-57
2021/12/01 04:31:28;;;;;;;4.40;1.20;;;;;;;;;;5040949;28;20106;-57
2021/12/01 04:33:55;;;;;;;2.78;1.58;;;;;;;;;;5038028;28;20060;-59
2021/12/01 04:36:24;;;;;;;2.00;1.23;;;;;;;;;;5044348;28;20053;-58
2021/12/01 04:38:53;;;;;;;5.90;1.50;;;;;;;;;;5044788;28;20091;-56
2021/12/01 04:41:19;;;;;;;2.35;1.40;;;;;;;;;;5062055;28;20149;-58
2021/12/01 04:43:47;;;;;;;4.40;1.55;;;;;;;;;;5050281;28;20061;-58
2021/12/01 04:46:16;;;;;;;3.03;1.40;;;;;;;;;;5039401;28;20045;-58
2021/12/01 04:48:43;;;;;;;2.80;1.25;;;;;;;;;;5034260;28;20050;-59
2021/12/01 04:51:09;;;;;;;2.22;1.38;;;;;;;;;;5019829;28;20041;-57
2021/12/01 04:53:37;;;;;;;3.05;1.38;;;;;;;;;;5020419;28;20030;-57
2021/12/01 04:56:06;;;;;;;2.53;1.35;;;;;;;;;;5038884;28;20041;-56
2021/12/01 04:58:32;;;;;;;6.32;1.85;;;;;;;;;;5037494;28;20054;-57
2021/12/01 05:00:59;;;;;;;5.93;1.40;;;;;;;;;;5035522;28;20044;-56
2021/12/01 05:03:26;;;;;;;3.85;1.65;;;;;;;;;;5040034;28;20127;-59
2021/12/01 05:05:52;;;;;;;2.45;1.30;;;;;;;;;;5019221;28;20119;-58
2021/12/01 05:08:20;;;;;;;5.18;1.80;;;;;;;;;;5023191;28;20045;-58
2021/12/01 05:10:46;;;;;;;2.85;1.42;;;;;;;;;;5028014;28;20053;-57
2021/12/01 05:13:14;;;;;;;2.33;1.40;;;;;;;;;;5025777;28;20050;-58
2021/12/01 05:15:40;;;;;;;2.90;1.27;;;;;;;;;;5017924;28;20038;-56
2021/12/01 05:18:13;;;;;;;1.98;1.15;;;;;;;;;;5021363;28;20049;-58
2021/12/01 05:20:40;;;;;;;2.53;1.40;;;;;;;;;;5028238;28;20099;-57
2021/12/01 05:23:06;;;;;;;3.38;1.40;;;;;;;;;;5039814;28;20060;-53
2021/12/01 05:25:33;;;;;;;5.43;1.35;;;;;;;;;;5029744;28;20044;-56
2021/12/01 05:28:01;;;;;;;6.70;1.15;;;;;;;;;;5020505;28;20042;-57
2021/12/01 05:30:29;;;;;;;1.48;1.00;;;;;;;;;;5021952;28;20049;-58
2021/12/01 05:32:55;;;;;;;2.53;1.23;;;;;;;;;;5039207;28;20037;-56
2021/12/01 05:35:21;;;;;;;2.53;1.55;;;;;;;;;;5021504;28;20298;-56
2021/12/01 05:37:49;;;;;;;3.10;1.33;;;;;;;;;;5042413;28;20041;-57
2021/12/01 05:40:16;;;;;;;2.47;1.25;;;;;;;;;;5037348;28;20049;-58
2021/12/01 05:42:42;;;;;;;3.10;1.58;;;;;;;;;;5060406;28;20044;-58
2021/12/01 05:45:09;;;;;;;3.33;1.35;;;;;;;;;;5060243;28;20166;-57
2021/12/01 05:47:37;;;;;;;2.60;1.35;;;;;;;;;;5022450;28;20100;-56
2021/12/01 05:50:03;;;;;;;1.63;0.95;;;;;;;;;;5021939;28;20056;-57
2021/12/01 05:52:30;;;;;;;3.53;1.63;;;;;;;;;;5016597;28;20052;-58
2021/12/01 05:54:56;;;;;;;8.60;2.67;;;;;;;;;;5021111;28;20042;-57
2021/12/01 05:57:23;;;;;;;2.80;1.55;;;;;;;;;;5032468;28;20105;-58
2021/12/01 05:59:49;;;;;;;2.63;1.27;;;;;;;;;;5041334;28;20221;-58
2021/12/01 06:02:16;;;;;;;3.20;1.30;;;;;;;;;;5036187;28;20146;-56
2021/12/01 06:04:44;;;;;;;3.17;1.40;;;;;;;;;;5039534;28;20041;-58
2021/12/01 06:07:10;;;;;;;2.42;1.20;;;;;;;;;;5036375;28;20047;-58
2021/12/01 06:09:37;;;;;;;2.35;1.10;;;;;;;;;;5031244;28;20123;-57
2021/12/01 06:12:04;;;;;;;3.83;1.30;;;;;;;;;;5033058;28;20064;-57
2021/12/01 06:14:31;;;;;;;1.45;1.00;;;;;;;;;;5028433;28;20045;-57
2021/12/01 06:16:58;;;;;;;2.08;1.10;;;;;;;;;;5028126;28;20049;-57
2021/12/01 06:19:25;;;;;;;2.65;1.23;;;;;;;;;;5031839;28;20053;-57
2021/12/01 06:21:52;;;;;;;5.63;1.30;;;;;;;;;;5031504;28;20054;-58
2021/12/01 06:24:19;;;;;;;1.83;1.00;;;;;;;;;;5030050;28;20050;-55
2021/12/01 06:26:45;;;;;;;4.07;1.73;;;;;;;;;;5029201;28;20033;-58
2021/12/01 06:29:12;;;;;;;4.38;1.65;;;;;;;;;;5028955;28;20048;-57
2021/12/01 06:31:41;;;;;;;3.70;1.35;;;;;;;;;;5026768;28;20134;-58
2021/12/01 06:34:07;;;;;;;3.45;1.30;;;;;;;;;;5031457;28;20293;-58
2021/12/01 06:36:34;;;;;;;1.67;0.82;;;;;;;;;;5037399;28;20127;-56
2021/12/01 06:39:02;;;;;;;1.40;0.90;;;;;;;;;;5026261;28;20041;-57
2021/12/01 06:41:28;;;;;;;2.03;1.20;;;;;;;;;;5029670;28;20029;-58
2021/12/01 06:43:55;;;;;;;1.27;0.88;;;;;;;;;;5034495;28;20037;-57
2021/12/01 06:46:22;;;;;;;1.98;1.02;;;;;;;;;;5028915;28;20100;-57
2021/12/01 06:48:49;;;;;;;3.97;1.40;;;;;;;;;;5028988;28;20073;-58
2021/12/01 06:51:15;;;;;;;2.13;1.17;;;;;;;;;;5031790;28;20049;-57
2021/12/01 06:53:42;;;;;;;1.40;0.95;;;;;;;;;;5031695;28;20037;-57
2021/12/01 06:56:10;;;;;;;2.13;1.13;;;;;;;;;;5038964;28;20045;-57
2021/12/01 06:58:37;;;;;;;;;;;;;;;;;;5034376;28;20052;-58
2021/12/01 07:01:05;;;;;;;2.05;0.95;;;;;;;;;;5037689;28;20010;-57
2021/12/01 07:03:31;;;;;;;1.63;0.90;;;;;;;;;;5035249;28;20053;-57
2021/12/01 07:05:57;;;;;;;1.70;1.05;;;;;;;;;;5038773;28;20196;-57
2021/12/01 07:08:24;;;;;;;1.45;1.10;;;;;;;;;;5038243;28;20065;-57
2021/12/01 07:10:51;;;;;;;1.58;0.90;;;;;;;;;;5018010;28;20061;-58
2021/12/01 07:13:19;;;;;;;1.90;1.00;;;;;;;;;;5018999;28;20109;-57
2021/12/01 07:15:45;;;;;;;1.70;1.10;;;;;;;;;;5016548;28;20115;-57
2021/12/01 07:18:12;;;;;;;1.70;0.93;;;;;;;;;;5019459;28;20278;-57
2021/12/01 07:20:38;;;;;;;1.48;1.17;;;;;;;;;;5029761;28;20131;-58
2021/12/01 07:23:05;;;;;;;2.10;1.33;;;;;;;;;;5039608;28;20049;-56
2021/12/01 07:25:32;;;;;;;1.85;1.13;;;;;;;;;;5026375;28;20046;-57
2021/12/01 07:27:59;;;;;;;1.80;0.93;;;;;;;;;;5019500;28;20089;-57
2021/12/01 07:30:27;;;;;;;1.75;1.10;;;;;;;;;;5015081;28;20040;-54
2021/12/01 07:32:53;;;;;;;2.30;0.80;;;;;;;;;;5020614;28;20360;-58
2021/12/01 07:35:20;;;;;;;1.35;0.98;;;;;;;;;;5025595;28;20088;-58
2021/12/01 07:37:49;;;;;;;2.40;1.17;;;;;;;;;;5040156;28;20111;-58
2021/12/01 07:40:16;;;;;;;1.55;1.17;;;;;;;;;;5037725;28;20044;-58
2021/12/01 07:42:42;;;;;;;2.67;1.50;;;;;;;;;;5040186;28;20049;-57
2021/12/01 07:45:09;;;;;;;3.05;1.60;;;;;;;;;;5038462;28;20048;-57
2021/12/01 07:47:37;;;;;;;2.38;1.50;;;;;;;;;;5042028;28;20049;-56
2021/12/01 07:50:04;;;;;;;2.43;1.60;;;;;;;;;;5039266;28;20052;-59
2021/12/01 07:52:32;;;;;;;2.10;1.35;;;;;;;;;;5036954;28;20334;-58
2021/12/01 07:54:58;;;;;;;2.78;1.50;;;;;;;;;;5040396;28;20164;-58
2021/12/01 07:57:25;;;;;;;4.47;1.98;;;;;;;;;;5036084;28;20052;-58
2021/12/01 07:59:51;;;;;;;4.00;1.52;;;;;;;;;;5041035;28;20045;-57
2021/12/01 08:02:18;;;;;;;3.03;1.90;;;;;;;;;;5024637;28;20037;-58
2021/12/01 08:04:46;;;;;;;3.30;1.65;;;;;;;;;;5020112;28;20053;-58
2021/12/01 08:07:12;;;;;;;2.70;1.57;;;;;;;;;;5030497;28;20126;-55
2021/12/01 08:09:39;;;;;;;4.68;2.20;;;;;;;;;;5042038;28;20033;-58
2021/12/01 08:12:07;;;;;;;4.35;2.38;;;;;;;;;;5032919;28;20037;-57
2021/12/01 08:14:34;;;;;;;3.63;2.03;;;;;;;;;;5042154;28;20056;-58
2021/12/01 08:17:01;;;;;;;3.40;2.13;;;;;;;;;;5033126;28;20041;-58
2021/12/01 08:19:28;;;;;;;3.60;2.13;;;;;;;;;;5020961;28;20100;-58
2021/12/01 08:21:56;;;;;;;4.88;2.38;;;;;;;;;;5022904;28;20147;-57
2021/12/01 08:24:22;;;;;;;2.83;1.85;;;;;;;;;;5041366;28;20160;-58
2021/12/01 08:26:49;;;;;;;4.15;2.17;;;;;;;;;;5038037;28;20041;-58
2021/12/01 08:29:16;;;;;;;3.63;2.03;;;;;;;;;;5023017;28;20049;-58
2021/12/01 08:31:42;;;;;;;4.00;2.10;;;;;;;;;;5022134;28;20042;-58
2021/12/01 08:34:09;;;;;;;6.05;2.33;;;;;;;;;;5025289;28;20056;-58
2021/12/01 08:36:36;;;;;;;5.70;2.75;;;;;;;;;;5021452;28;20168;-58
2021/12/01 08:39:05;;;;;;;4.78;2.30;;;;;;;;;;5018458;28;20056;-57
2021/12/01 08:41:31;;;;;;;4.15;2.13;;;;;;;;;;5021279;28;20045;-58
2021/12/01 08:43:58;;;;;;;6.00;2.20;;;;;;;;;;5033956;28;20053;-58
2021/12/01 08:46:24;;;;;;;5.82;2.35;;;;;;;;;;5042869;28;20045;-57
2021/12/01 08:48:51;;;;;;;3.72;2.08;;;;;;;;;;5026641;28;20059;-56
2021/12/01 08:51:17;;;;;;;4.70;1.98;;;;;;;;;;5020577;28;20054;-58
2021/12/01 08:53:44;;;;;;;3.80;1.98;;;;;;;;;;5036522;28;20091;-58
2021/12/01 08:56:15;;;;;;;4.25;1.95;;;;;;;;;;5042373;28;20041;-58
2021/12/01 08:58:41;;;;;;;6.22;2.13;;;;;;;;;;5037743;28;20041;-58
2021/12/01 09:01:08;;;;;;;5.43;2.20;;;;;;;;;;5041814;28;20070;-58
2021/12/01 09:03:36;;;;;;;4.03;1.98;;;;;;;;;;5033477;28;20148;-58
2021/12/01 09:06:04;;;;;;;4.75;1.83;;;;;;;;;;5019727;28;20050;-58
2021/12/01 09:08:30;;;;;;;4.90;1.70;;;;;;;;;;5020456;28;20052;-58
2021/12/01 09:10:58;;;;;;;9.50;1.60;;;;;;;;;;5041789;28;20045;-58
2021/12/01 09:13:27;;;;;;;4.70;1.55;;;;;;;;;;5025863;28;20034;-57
2021/12/01 09:15:54;;;;;;;6.97;1.58;;;;;;;;;;5040816;28;20061;-59
2021/12/01 09:18:20;;;;;;;4.00;1.13;;;;;;;;;;5040863;28;20142;-58
2021/12/01 09:20:47;;;;;;;4.63;1.13;;;;;;;;;;5037770;28;20047;-57
2021/12/01 09:23:16;;;;;;;4.85;0.95;;;;;;;;;;5041523;28;20140;-58
2021/12/01 09:25:43;;;;;;;2.60;1.00;;;;;;;;;;5022869;28;20060;-57
2021/12/01 09:28:09;;;;;;;4.15;1.13;;;;;;;;;;5032621;28;20056;-58
2021/12/01 09:30:37;;;;;;;6.90;1.27;;;;;;;;;;5036997;28;20134;-58
2021/12/01 09:33:04;;;;;;;5.27;1.13;;;;;;;;;;5037437;28;20061;-56
2021/12/01 09:35:30;;;;;;;2.63;1.10;;;;;;;;;;5018259;28;20368;-58
2021/12/01 09:37:57;;;;;;;6.85;1.20;;;;;;;;;;5021373;28;20050;-58
2021/12/01 09:40:24;;;;;;;2.25;0.88;;;;;;;;;;5026550;28;20049;-58
2021/12/01 09:42:51;;;;;;;3.45;1.10;;;;;;;;;;5040764;28;20053;-58
2021/12/01 09:45:20;;;;;;;7.13;1.20;;;;;;;;;;5031495;28;20044;-59
2021/12/01 09:47:49;;;;;;;11.13;1.17;;;;;;;;;;5024778;28;20049;-57
2021/12/01 09:50:16;;;;;;;5.82;1.40;;;;;;;;;;5021665;28;20045;-58
2021/12/01 09:52:43;;;;;;;7.32;0.90;;;;;;;;;;5041426;28;20064;-55
2021/12/01 09:55:12;;;;;;;5.63;1.27;;;;;;;;;;5039218;28;20041;-58
2021/12/01 09:57:38;;;;;;;5.20;1.08;;;;;;;;;;5039788;28;20042;-57
2021/12/01 10:00:06;;;;;;;8.80;1.00;;;;;;;;;;5039944;28;20053;-57
2021/12/01 10:02:33;;;;;;;4.30;1.10;;;;;;;;;;5017841;28;20049;-58
2021/12/01 10:05:01;;;;;;;6.68;0.75;;;;;;;;;;5021437;28;20053;-57
2021/12/01 10:07:32;;;;;;;7.85;0.70;;;;;;;;;;5015879;28;20036;-58
2021/12/01 10:10:04;;;;;;;10.90;0.98;;;;;;;;;;5020954;28;20045;-57
2021/12/01 10:12:43;;;;;;;6.03;1.00;;;;;;;;;;5018471;28;20057;-57
2021/12/01 10:15:10;;;;;;;2.30;0.75;;;;;;;;;;5037421;28;20041;-57
2021/12/01 10:17:36;;;;;;;17.30;0.93;;;;;;;;;;5022563;28;20052;-57
2021/12/01 10:20:16;;;;;;;2.55;0.70;;;;;;;;;;5019429;28;20049;-57
2021/12/01 10:23:05;;;;;;;9.02;0.88;;;;;;;;;;5017563;28;20049;-56
2021/12/01 10:25:32;;;;;;;5.82;0.65;;;;;;;;;;5011800;28;20042;-57
2021/12/01 10:27:59;;;;;;;7.88;0.57;;;;;;;;;;5033237;28;20045;-56
2021/12/01 10:30:36;;;;;;;3.67;0.80;;;;;;;;;;5040777;28;20037;-54
2021/12/01 10:33:06;;;;;;;5.07;0.60;;;;;;;;;;5024110;28;20048;-57
2021/12/01 10:35:35;;;;;;;1.45;0.65;;;;;;;;;;5020013;28;20156;-58
2021/12/01 10:38:01;;;;;;;4.38;1.05;;;;;;;;;;5028881;28;20049;-58
2021/12/01 10:40:28;;;;;;;5.22;0.77;;;;;;;;;;5019120;28;20615;-58
2021/12/01 10:42:55;;;;;;;4.97;0.52;;;;;;;;;;5025022;28;20052;-58
2021/12/01 10:45:23;;;;;;;6.60;0.80;;;;;;;;;;5039800;28;20049;-59
2021/12/01 10:47:49;;;;;;;9.32;1.10;;;;;;;;;;5031161;28;20041;-58
2021/12/01 10:50:17;;;;;;;5.38;0.80;;;;;;;;;;5021184;28;20120;-58
2021/12/01 10:52:49;;;;;;;2.20;0.55;;;;;;;;;;5016554;28;20869;-58
2021/12/01 10:55:17;;;;;;;4.80;0.82;;;;;;;;;;5022264;28;20053;-58
2021/12/01 10:57:47;;;;;;;3.63;1.08;;;;;;;;;;5018861;28;20049;-57
2021/12/01 11:00:15;;;;;;;2.80;0.65;;;;;;;;;;5038906;28;20048;-58
2021/12/01 11:02:41;;;;;;;6.53;1.10;;;;;;;;;;5039998;28;20041;-58
2021/12/01 11:05:08;;;;;;;5.00;0.77;;;;;;;;;;5038483;28;20041;-58
2021/12/01 11:07:35;;;;;;;4.60;0.60;;;;;;;;;;5040546;28;20135;-58
2021/12/01 11:10:13;;;;;;;3.38;0.55;;;;;;;;;;5035125;28;20041;-58
2021/12/01 11:12:40;;;;;;;2.35;0.70;;;;;;;;;;5030452;28;20052;-58
2021/12/01 11:15:16;;;;;;;5.10;0.40;;;;;;;;;;5016534;28;20048;-58
2021/12/01 11:17:43;;;;;;;4.45;0.70;;;;;;;;;;5020802;28;20042;-57
2021/12/01 11:20:10;;;;;;;4.82;0.65;;;;;;;;;;5022990;28;20093;-56
2021/12/01 11:22:37;;;;;;;4.50;1.10;;;;;;;;;;5039809;28;20033;-58
2021/12/01 11:25:22;;;;;;;10.05;1.02;;;;;;;;;;5034808;28;20036;-58
2021/12/01 11:27:50;;;;;;;1.85;0.73;;;;;;;;;;5035059;28;20045;-59
2021/12/01 11:30:16;;;;;;;3.70;0.68;;;;;;;;;;5034761;28;20037;-58
2021/12/01 11:32:43;;;;;;;7.10;0.90;;;;;;;;;;5039531;28;20055;-57
2021/12/01 11:35:09;;;;;;;8.57;0.95;;;;;;;;;;5034973;28;20057;-58
2021/12/01 11:37:36;;;;;;;4.90;0.98;;;;;;;;;;5022972;28;20522;-57
2021/12/01 11:40:04;;;;;;;5.57;0.88;;;;;;;;;;5024225;28;20050;-57
2021/12/01 11:42:32;;;;;;;7.43;1.30;;;;;;;;;;5053615;28;20037;-59
2021/12/01 11:45:00;;;;;;;2.85;0.90;;;;;;;;;;5028971;28;20037;-59
2021/12/01 11:47:29;;;;;;;7.97;1.42;;;;;;;;;;5019419;28;20327;-58
2021/12/01 11:49:55;;;;;;;7.85;0.80;;;;;;;;;;5019804;28;20045;-58
2021/12/01 11:52:27;;;;;;;8.35;0.68;;;;;;;;;;5038241;28;20062;-57
2021/12/01 11:54:53;;;;;;;5.80;0.85;;;;;;;;;;5035556;28;20048;-57
2021/12/01 11:57:23;;;;;;;7.03;0.90;;;;;;;;;;5039284;28;20037;-57
2021/12/01 11:59:50;;;;;;;8.95;1.13;;;;;;;;;;5039229;28;20060;-55
2021/12/01 12:02:23;;;;;;;6.00;0.87;;;;;;;;;;5014479;28;20050;-55
2021/12/01 12:04:51;;;;;;;7.22;0.80;;;;;;;;;;5017979;28;20471;-58
2021/12/01 12:07:19;;;;;;;14.85;1.05;;;;;;;;;;5015384;28;20042;-58
2021/12/01 12:10:04;;;;;;;1.60;0.45;;;;;;;;;;5020082;28;20042;-58
2021/12/01 12:12:43;;;;;;;6.47;0.93;;;;;;;;;;5024566;28;20057;-58
2021/12/01 12:15:11;;;;;;;6.20;0.80;;;;;;;;;;5040381;28;20069;-58
2021/12/01 12:17:38;;;;;;;6.03;0.70;;;;;;;;;;5017084;28;20056;-58
2021/12/01 12:20:12;;;;;;;6.43;0.70;;;;;;;;;;5018168;28;20077;-56
2021/12/01 12:22:58;;;;;;;6.78;1.10;;;;;;;;;;5029063;28;20037;-58
2021/12/01 12:25:36;;;;;;;5.00;0.90;;;;;;;;;;5039749;28;20041;-57
2021/12/01 12:28:19;;;;;;;10.73;1.00;;;;;;;;;;5019759;28;20094;-58
2021/12/01 12:30:46;;;;;;;7.00;1.23;;;;;;;;;;5020823;28;20049;-56
2021/12/01 12:33:17;;;;;;;4.63;0.60;;;;;;;;;;5031385;28;20181;-57
2021/12/01 12:35:45;;;;;;;9.52;1.13;;;;;;;;;;5022185;28;20271;-58
2021/12/01 12:38:11;;;;;;;4.25;0.75;;;;;;;;;;5020201;28;20037;-58
2021/12/01 12:40:38;;;;;;;3.80;0.60;;;;;;;;;;5022131;28;20074;-58
2021/12/01 12:43:05;;;;;;;7.30;0.80;;;;;;;;;;5016933;28;20046;-58
2021/12/01 12:45:32;;;;;;;7.97;0.98;;;;;;;;;;5014844;28;20030;-55
2021/12/01 12:48:00;;;;;;;7.82;1.08;;;;;;;;;;5027743;28;20038;-58
2021/12/01 12:50:27;;;;;;;3.85;0.88;;;;;;;;;;5041446;28;20041;-58
2021/12/01 12:52:54;;;;;;;5.40;0.60;;;;;;;;;;5041102;28;20069;-58
2021/12/01 12:55:37;;;;;;;8.05;1.30;;;;;;;;;;5040400;28;20049;-58
2021/12/01 12:58:04;;;;;;;7.63;0.90;;;;;;;;;;5038235;28;20041;-57
2021/12/01 13:00:32;;;;;;;8.73;0.85;;;;;;;;;;5041949;28;20041;-56
2021/12/01 13:03:01;;;;;;;5.25;1.40;;;;;;;;;;5036736;28;20056;-58
2021/12/01 13:05:36;;;;;;;7.32;0.85;;;;;;;;;;5040029;28;20052;-58
2021/12/01 13:08:03;;;;;;;7.70;1.00;;;;;;;;;;5037745;28;20049;-57
2021/12/01 13:10:35;;;;;;;4.97;0.70;;;;;;;;;;5040574;28;20056;-57
2021/12/01 13:13:03;;;;;;;2.50;0.35;;;;;;;;;;5028954;28;20041;-58
2021/12/01 13:15:31;;;;;;;6.38;0.63;;;;;;;;;;5061483;28;20045;-59
2021/12/01 13:17:59;;;;;;;3.78;0.77;;;;;;;;;;5054456;28;20045;-58
2021/12/01 13:20:27;;;;;;;7.45;0.98;;;;;;;;;;5039742;28;20049;-58
2021/12/01 13:23:11;;;;;;;5.00;0.70;;;;;;;;;;5039808;28;20048;-58
2021/12/01 13:25:40;;;;;;;4.05;0.88;;;;;;;;;;5020195;28;20057;-57
2021/12/01 13:28:09;;;;;;;3.83;0.68;;;;;;;;;;5020835;28;20059;-57
2021/12/01 13:30:52;;;;;;;5.75;0.88;;;;;;;;;;5019302;28;20307;-58
2021/12/01 13:33:19;;;;;;;5.63;1.10;;;;;;;;;;5018176;28;20037;-57
2021/12/01 13:35:47;;;;;;;6.28;1.13;;;;;;;;;;5016838;28;20038;-57
2021/12/01 13:38:13;;;;;;;5.07;0.67;;;;;;;;;;5021532;28;20041;-58
2021/12/01 13:40:41;;;;;;;5.70;0.70;;;;;;;;;;5017516;28;20037;-58
2021/12/01 13:43:17;;;;;;;3.97;0.98;;;;;;;;;;5019016;28;20037;-57
2021/12/01 13:45:53;;;;;;;4.35;1.00;;;;;;;;;;5033925;28;20049;-57
2021/12/01 13:48:20;;;;;;;5.95;0.90;;;;;;;;;;5039832;28;20049;-58
2021/12/01 13:50:48;;;;;;;10.77;1.17;;;;;;;;;;5024851;28;20051;-58
2021/12/01 13:53:14;;;;;;;6.05;1.13;;;;;;;;;;5020506;28;20069;-58
2021/12/01 13:55:41;;;;;;;5.13;1.00;;;;;;;;;;5040291;28;20114;-58
2021/12/01 13:58:09;;;;;;;8.27;0.98;;;;;;;;;;5061279;28;20137;-57
2021/12/01 14:00:37;;;;;;;6.60;1.27;;;;;;;;;;5040315;28;20071;-58
2021/12/01 14:03:04;;;;;;;8.35;0.73;;;;;;;;;;5020131;28;20042;-57
2021/12/01 14:05:31;;;;;;;9.57;0.90;;;;;;;;;;5021487;28;20026;-58
2021/12/01 14:08:12;;;;;;;8.23;0.90;;;;;;;;;;5041443;28;20138;-57
2021/12/01 14:10:54;;;;;;;6.00;0.80;;;;;;;;;;5031701;28;20053;-56
2021/12/01 14:13:22;;;;;;;5.75;0.80;;;;;;;;;;5037089;28;20126;-56
2021/12/01 14:15:51;;;;;;;2.87;0.80;;;;;;;;;;5042622;28;20064;-57
2021/12/01 14:18:17;;;;;;;10.60;1.08;;;;;;;;;;5062581;28;20044;-58
2021/12/01 14:20:44;;;;;;;13.30;1.40;;;;;;;;;;5055778;28;20120;-58
2021/12/01 14:23:11;;;;;;;3.28;0.88;;;;;;;;;;5040964;28;20125;-58
2021/12/01 14:25:37;;;;;;;7.82;1.05;;;;;;;;;;5037040;28;20147;-58
2021/12/01 14:28:09;;;;;;;6.72;1.10;;;;;;;;;;5019340;28;20056;-59
2021/12/01 14:30:36;;;;;;;2.75;0.85;;;;;;;;;;5020566;28;20033;-59
2021/12/01 14:33:02;;;;;;;8.10;0.88;;;;;;;;;;5017140;28;20071;-58
2021/12/01 14:35:29;;;;;;;4.32;0.80;;;;;;;;;;5032586;28;20130;-58
2021/12/01 14:37:56;;;;;;;11.32;0.93;;;;;;;;;;5021218;28;20042;-58
2021/12/01 14:40:23;;;;;;;5.07;0.70;;;;;;;;;;5020485;28;20365;-57
2021/12/01 14:42:50;;;;;;;6.10;0.88;;;;;;;;;;5018899;28;20034;-58
2021/12/01 14:45:19;;;;;;;1.50;0.50;;;;;;;;;;5020020;28;20037;-57
2021/12/01 14:47:59;;;;;;;1.70;0.52;;;;;;;;;;5026047;28;20049;-57
2021/12/01 14:50:25;;;;;;;2.80;0.57;;;;;;;;;;5039516;28;20107;-58
2021/12/01 14:52:53;;;;;;;6.75;0.63;;;;;;;;;;5023789;28;20042;-57